アトランタ の空港の天気 - METARとTAF

ハーツフィールド・ジャクソン・アトランタ国際空港 ( KATL / ATL ) - アメリカ ジョージア州アトランタ
飛行場実況気象(Metar)
観測時間12/14 01:25 EST (12/14 06:25 UTC)
風向・風速東 7m/s
視程10km以上
天気現象弱い雨
全天を覆う雲 雲底高度 400m
気温10℃
湿度66%
気圧1020hPa
METARKATL 140625Z 09014KT 10SM -RA OVC013 10/04 A3011 RMK AO2 RAB23 P0000 T01000039
過去の天気等 Google飛行場航空写真 Wunderground天気予報

過去48時間のMETAR

飛行場予報(TAF)
発表時間: 12/14 00:42 EST (12/14 05:42 UTC)
予報対象時間: 14日1時 EST ~ 15日7時 EST
風向・風速東 7m/s 瞬間風速 10m/s
視程10km以上
天気現象周辺でしゅう雨
全天を覆う雲 雲底高度 460m
14日3時 EST から
風向・風速東 7m/s 瞬間風速 10m/s
視程10km以上
天気現象弱い雨 もや
全天の8割程度の雲 雲底高度 240m
全天を覆う雲 雲底高度 370m
14日7時 EST から
風向・風速東 6m/s 瞬間風速 10m/s
視程6440m
天気現象弱い雨 もや
全天を覆う雲 雲底高度 180m
14日12時 EST から
風向・風速東 5m/s
視程3220m
天気現象弱い雨霧雨 もや
全天を覆う雲 雲底高度 120m
14日19時 EST から
風向・風速東南東 3m/s
視程3220m
天気現象弱い霧雨 もや
全天を覆う雲 雲底高度 120m
KATL 140542Z 1406/1512 08013G20KT P6SM VCSH OVC015
FM140800 08013G20KT 6SM -RA BR BKN008 OVC012
FM141200 08011G20KT 4SM -RA BR OVC006
FM141700 09010KT 2SM -RADZ BR OVC004
FM150000 11006KT 2SM -DZ BR OVC004